Time;durP1;ratioP1;P1;durP2;ratioP2;P2;SDS_P1;SDS_P2;PMS_P1;PMS_P2;Temp;Humidity;BMP_temperature;BMP_pressure;BME280_temperature;BME280_humidity;BME280_pressure;Samples;Min_cycle;Max_cycle;Signal;HPM_P1;HPM_P2
2023/08/08 00:01:24;;;;;;;1.20;1.10;;;22.70;45.10;;;;;;5004481;28;20662;-73
2023/08/08 00:03:49;;;;;;;1.00;0.90;;;22.60;44.90;;;;;;5004699;28;20223;-73
2023/08/08 00:06:15;;;;;;;1.90;1.07;;;22.70;45.00;;;;;;5012351;28;20750;-74
2023/08/08 00:08:41;;;;;;;1.30;1.20;;;22.60;44.90;;;;;;5010603;28;20231;-74
2023/08/08 00:11:06;;;;;;;1.00;1.00;;;22.60;44.80;;;;;;5006457;28;20678;-74
2023/08/08 00:13:32;;;;;;;1.20;1.10;;;22.60;44.60;;;;;;5007859;28;20568;-77
2023/08/08 00:15:58;;;;;;;1.27;1.17;;;22.60;44.50;;;;;;5021775;28;21048;-75
2023/08/08 00:18:23;;;;;;;1.57;1.10;;;22.60;44.30;;;;;;5004104;28;20219;-73
2023/08/08 00:20:49;;;;;;;1.43;1.33;;;22.60;44.30;;;;;;5011086;28;20352;-75
2023/08/08 00:23:14;;;;;;;1.27;1.17;;;22.60;44.20;;;;;;5012917;28;20214;-76
2023/08/08 00:25:40;;;;;;;1.47;1.13;;;22.60;44.10;;;;;;5013133;28;20588;-73
2023/08/08 00:28:05;;;;;;;1.20;1.10;;;22.60;44.00;;;;;;5013142;28;21057;-74
2023/08/08 00:30:31;;;;;;;1.30;1.20;;;22.60;44.00;;;;;;5003167;28;20247;-75
2023/08/08 00:32:56;;;;;;;1.20;1.10;;;22.60;43.90;;;;;;5009274;28;20310;-74
2023/08/08 00:35:22;;;;;;;1.10;1.00;;;22.60;43.80;;;;;;5011156;28;20234;-74
2023/08/08 00:37:48;;;;;;;1.40;1.30;;;22.50;43.70;;;;;;5009510;28;20230;-74
2023/08/08 00:40:14;;;;;;;1.37;1.27;;;22.60;43.70;;;;;;5004057;28;21093;-73
2023/08/08 00:42:39;;;;;;;1.90;1.50;;;22.50;43.60;;;;;;5006289;28;20495;-74
2023/08/08 00:45:05;;;;;;;1.30;1.20;;;22.50;43.60;;;;;;5013956;28;20818;-74
2023/08/08 00:47:32;;;;;;;1.33;1.20;;;22.50;43.60;;;;;;5010436;28;20230;-74
2023/08/08 00:49:59;;;;;;;1.40;1.30;;;22.50;43.50;;;;;;5013410;28;20475;-76
2023/08/08 00:52:25;;;;;;;1.27;1.17;;;22.50;43.40;;;;;;5006325;28;20472;-73
2023/08/08 00:54:51;;;;;;;3.10;1.10;;;22.50;43.40;;;;;;5005491;28;20471;-73
2023/08/08 00:57:17;;;;;;;1.23;1.13;;;22.50;43.30;;;;;;5009609;28;20906;-73
2023/08/08 00:59:42;;;;;;;3.60;1.20;;;22.50;43.20;;;;;;5005992;28;21002;-74
2023/08/08 01:02:08;;;;;;;1.20;1.10;;;22.50;43.20;;;;;;5003253;28;20328;-73
2023/08/08 01:04:33;;;;;;;2.40;1.20;;;22.50;43.20;;;;;;5007513;28;20624;-73
2023/08/08 01:07:24;;;;;;;1.30;1.20;;;22.50;43.20;;;;;;5007469;28;20250;-73
2023/08/08 01:10:09;;;;;;;1.40;1.30;;;22.50;43.20;;;;;;5009347;28;20238;-73
2023/08/08 01:12:52;;;;;;;1.03;1.00;;;22.50;43.10;;;;;;5011701;28;20460;-73
2023/08/08 01:15:19;;;;;;;2.00;1.00;;;22.50;43.10;;;;;;5012584;28;20460;-73
2023/08/08 01:17:46;;;;;;;1.53;1.20;;;22.50;43.10;;;;;;5009070;28;20465;-73
2023/08/08 01:20:16;;;;;;;1.43;1.33;;;22.50;43.10;;;;;;5011090;28;20463;-73
2023/08/08 01:22:44;;;;;;;1.27;1.17;;;22.50;43.00;;;;;;5012127;28;20476;-75
2023/08/08 01:25:10;;;;;;;3.43;1.20;;;22.50;43.00;;;;;;5012733;28;20502;-73
2023/08/08 01:27:36;;;;;;;1.30;1.20;;;22.50;43.00;;;;;;5005626;28;20541;-73
2023/08/08 01:30:03;;;;;;;0.97;0.97;;;22.50;43.20;;;;;;5005072;28;20294;-73
2023/08/08 01:32:29;;;;;;;1.40;1.30;;;22.50;43.30;;;;;;5015317;28;20551;-73
2023/08/08 01:34:55;;;;;;;1.43;1.00;;;22.50;43.20;;;;;;5011022;28;20461;-73
2023/08/08 01:37:28;;;;;;;1.33;1.23;;;22.50;43.10;;;;;;5014568;28;20867;-73
2023/08/08 01:39:57;;;;;;;1.43;1.33;;;22.50;43.10;;;;;;4996742;28;20293;-73
2023/08/08 01:42:25;;;;;;;1.40;1.30;;;22.50;43.10;;;;;;5007347;28;21125;-73
2023/08/08 01:44:52;;;;;;;1.10;1.00;;;22.50;43.00;;;;;;5011630;28;20451;-76
2023/08/08 01:47:18;;;;;;;1.67;1.33;;;22.50;43.00;;;;;;5013475;28;20888;-73
2023/08/08 01:49:44;;;;;;;1.43;1.33;;;22.50;42.90;;;;;;5004313;28;20555;-75
2023/08/08 01:52:09;;;;;;;1.10;1.00;;;22.50;42.90;;;;;;5011690;28;20876;-73
2023/08/08 01:54:35;;;;;;;1.20;1.10;;;22.50;42.90;;;;;;5008600;28;20230;-73
2023/08/08 01:57:00;;;;;;;1.43;1.33;;;22.50;42.90;;;;;;5012812;28;20623;-73
2023/08/08 01:59:26;;;;;;;3.67;1.30;;;22.50;42.90;;;;;;5010822;28;20235;-74
2023/08/08 02:01:51;;;;;;;1.40;1.30;;;22.50;42.80;;;;;;5007291;28;20223;-73
2023/08/08 02:04:17;;;;;;;1.40;1.30;;;22.50;42.90;;;;;;5013503;28;20610;-73
2023/08/08 02:06:42;;;;;;;1.33;1.20;;;22.50;42.90;;;;;;5006744;28;20702;-73
2023/08/08 02:09:08;;;;;;;1.67;1.20;;;22.50;43.00;;;;;;5011790;28;20242;-74
2023/08/08 02:11:33;;;;;;;1.30;1.20;;;22.50;42.90;;;;;;5008629;28;21022;-73
2023/08/08 02:13:59;;;;;;;1.20;1.10;;;22.50;42.90;;;;;;5016170;28;20226;-73
2023/08/08 02:16:24;;;;;;;1.30;1.20;;;22.50;42.90;;;;;;5014208;28;20262;-73
2023/08/08 02:18:50;;;;;;;1.40;1.30;;;22.50;42.90;;;;;;5013777;28;20218;-73
2023/08/08 02:21:16;;;;;;;1.30;1.20;;;22.50;42.80;;;;;;5013931;28;20227;-73
2023/08/08 02:23:41;;;;;;;1.47;1.20;;;22.50;42.80;;;;;;5011255;28;20296;-73
2023/08/08 02:26:07;;;;;;;1.43;1.10;;;22.50;42.80;;;;;;5005402;28;20304;-76
2023/08/08 02:28:32;;;;;;;1.30;1.20;;;22.50;42.70;;;;;;5014872;28;20223;-73
2023/08/08 02:30:58;;;;;;;1.33;1.23;;;22.50;42.80;;;;;;5015218;28;20229;-74
2023/08/08 02:33:23;;;;;;;1.17;1.07;;;22.50;42.70;;;;;;5015750;28;20337;-73
2023/08/08 02:35:49;;;;;;;1.10;1.00;;;22.50;42.70;;;;;;5009883;28;20245;-73
2023/08/08 02:38:14;;;;;;;1.30;1.20;;;22.50;42.70;;;;;;5012850;28;20218;-73
2023/08/08 02:40:40;;;;;;;1.40;1.30;;;22.50;42.70;;;;;;5009785;28;20285;-73
2023/08/08 02:43:05;;;;;;;2.00;1.20;;;22.40;42.40;;;;;;5014395;28;20245;-73
2023/08/08 02:45:31;;;;;;;1.93;1.23;;;22.40;42.50;;;;;;5001777;28;20723;-74
2023/08/08 02:47:56;;;;;;;1.40;1.30;;;22.50;42.60;;;;;;5012753;28;20215;-74
2023/08/08 02:50:22;;;;;;;1.20;1.10;;;22.40;43.00;;;;;;5012755;28;20258;-73
2023/08/08 02:52:48;;;;;;;4.23;1.37;;;22.40;42.40;;;;;;5010094;28;20261;-72
2023/08/08 02:55:14;;;;;;;1.23;1.13;;;22.40;42.40;;;;;;5008519;28;20298;-74
2023/08/08 02:57:39;;;;;;;3.73;1.13;;;22.40;42.30;;;;;;5007997;28;20983;-73
2023/08/08 03:00:08;;;;;;;1.40;1.30;;;22.40;42.40;;;;;;4999872;28;20231;-76
2023/08/08 03:02:33;;;;;;;1.23;1.13;;;22.40;42.40;;;;;;5009110;28;20229;-77
2023/08/08 03:04:59;;;;;;;2.07;1.40;;;22.40;42.40;;;;;;5010194;28;20472;-76
2023/08/08 03:07:25;;;;;;;1.50;1.20;;;22.40;42.40;;;;;;5015804;28;20238;-74
2023/08/08 03:09:50;;;;;;;1.00;1.00;;;22.50;42.50;;;;;;5006397;28;20230;-74
2023/08/08 03:12:16;;;;;;;1.50;1.40;;;22.50;42.60;;;;;;5012809;28;20242;-74
2023/08/08 03:14:41;;;;;;;2.03;1.40;;;22.50;42.60;;;;;;5003364;28;20749;-74
2023/08/08 03:17:07;;;;;;;1.60;1.50;;;22.50;42.50;;;;;;5003742;28;20238;-73
2023/08/08 03:19:32;;;;;;;1.30;1.17;;;22.50;42.50;;;;;;5003650;28;20220;-73
2023/08/08 03:21:58;;;;;;;1.30;1.20;;;22.50;42.40;;;;;;5006421;28;20584;-74
2023/08/08 03:24:23;;;;;;;1.30;1.20;;;22.50;42.50;;;;;;5015365;28;20226;-73
2023/08/08 03:26:49;;;;;;;1.50;1.27;;;22.50;42.50;;;;;;5008164;28;20906;-73
2023/08/08 03:29:14;;;;;;;1.60;1.50;;;22.50;42.50;;;;;;5012296;28;20239;-74
2023/08/08 03:31:40;;;;;;;1.47;1.30;;;22.50;42.40;;;;;;5013524;28;20233;-74
2023/08/08 03:34:05;;;;;;;1.30;1.20;;;22.40;42.30;;;;;;5016598;28;20233;-74
2023/08/08 03:36:31;;;;;;;1.97;1.40;;;22.40;42.30;;;;;;5014708;28;20235;-74
2023/08/08 03:38:57;;;;;;;1.23;1.13;;;22.40;42.30;;;;;;5014332;28;20250;-73
2023/08/08 03:41:23;;;;;;;2.10;1.30;;;22.40;42.30;;;;;;5008728;28;20325;-73
2023/08/08 03:43:48;;;;;;;1.30;1.20;;;22.40;43.10;;;;;;5016026;28;20452;-73
2023/08/08 03:46:14;;;;;;;2.20;2.00;;;22.40;42.30;;;;;;5010047;28;20709;-73
2023/08/08 03:48:39;;;;;;;1.97;1.30;;;22.40;42.20;;;;;;5016381;28;20222;-73
2023/08/08 03:51:05;;;;;;;1.57;1.47;;;22.40;42.20;;;;;;4999360;28;20230;-73
2023/08/08 03:53:31;;;;;;;1.93;1.83;;;22.40;42.10;;;;;;5016347;28;20237;-70
2023/08/08 03:55:56;;;;;;;1.53;1.43;;;22.40;42.20;;;;;;5018877;28;20456;-74
2023/08/08 03:58:22;;;;;;;1.50;1.40;;;22.40;42.20;;;;;;5015585;28;20867;-74
2023/08/08 04:00:47;;;;;;;1.50;1.40;;;22.40;42.20;;;;;;5014741;28;20751;-74
2023/08/08 04:03:14;;;;;;;2.40;1.20;;;22.40;42.30;;;;;;5012956;28;20222;-72
2023/08/08 04:05:41;;;;;;;1.27;1.10;;;22.40;42.20;;;;;;5006486;28;20321;-71
2023/08/08 04:08:06;;;;;;;1.20;1.10;;;22.40;42.20;;;;;;5009923;28;20536;-74
2023/08/08 04:10:32;;;;;;;1.40;1.30;;;22.40;42.20;;;;;;4999058;28;20456;-70
2023/08/08 04:12:57;;;;;;;2.57;1.40;;;22.40;42.10;;;;;;5007471;28;20231;-73
2023/08/08 04:15:23;;;;;;;1.33;1.20;;;22.50;42.00;;;;;;5013437;28;20236;-74
2023/08/08 04:17:48;;;;;;;1.40;1.30;;;22.50;41.90;;;;;;5012738;28;20311;-73
2023/08/08 04:20:14;;;;;;;1.57;1.10;;;22.50;41.80;;;;;;5009621;28;20223;-76
2023/08/08 04:22:40;;;;;;;1.70;1.60;;;22.60;41.80;;;;;;5004998;28;20222;-73
2023/08/08 04:25:06;;;;;;;1.60;1.20;;;22.60;41.60;;;;;;5006826;28;20227;-76
2023/08/08 04:27:31;;;;;;;1.40;1.20;;;22.60;41.60;;;;;;5003917;28;20263;-75
2023/08/08 04:29:57;;;;;;;6.27;1.70;;;22.60;41.60;;;;;;4992198;28;20933;-74
2023/08/08 04:32:23;;;;;;;1.03;1.03;;;22.60;41.50;;;;;;4993968;28;21102;-75
2023/08/08 04:34:48;;;;;;;1.23;1.13;;;22.60;42.10;;;;;;4993718;28;20257;-70
2023/08/08 04:37:14;;;;;;;1.20;1.10;;;22.60;42.50;;;;;;4991556;28;20254;-65
2023/08/08 04:39:39;;;;;;;1.20;1.10;;;22.60;42.70;;;;;;5006511;28;20617;-69
2023/08/08 04:42:05;;;;;;;1.20;1.10;;;22.60;43.00;;;;;;5006999;28;20215;-69
2023/08/08 04:44:30;;;;;;;1.23;1.13;;;22.60;43.30;;;;;;4997007;28;20227;-70
2023/08/08 04:46:56;;;;;;;1.20;1.10;;;22.60;43.50;;;;;;5000501;28;20671;-69
2023/08/08 04:49:21;;;;;;;1.40;1.10;;;22.60;43.70;;;;;;4991016;28;20922;-70
2023/08/08 04:51:47;;;;;;;1.87;1.07;;;22.60;43.80;;;;;;4995166;28;20803;-68
2023/08/08 04:54:12;;;;;;;1.13;1.07;;;22.70;44.00;;;;;;4995351;28;20245;-71
2023/08/08 04:56:38;;;;;;;1.20;1.10;;;22.70;44.10;;;;;;4995195;28;20708;-69
2023/08/08 04:59:03;;;;;;;1.20;1.10;;;22.70;44.30;;;;;;4997349;28;20226;-68
2023/08/08 05:01:29;;;;;;;2.40;1.13;;;22.70;44.40;;;;;;4996659;28;20228;-71
2023/08/08 05:03:54;;;;;;;1.20;1.10;;;22.70;44.50;;;;;;5007540;28;20262;-70
2023/08/08 05:06:20;;;;;;;1.20;1.10;;;22.70;44.50;;;;;;5008232;28;20318;-69
2023/08/08 05:08:46;;;;;;;1.20;1.10;;;22.70;44.60;;;;;;5004817;28;20237;-71
2023/08/08 05:11:11;;;;;;;1.20;1.10;;;22.70;44.90;;;;;;5004628;28;20354;-69
2023/08/08 05:13:37;;;;;;;1.23;1.13;;;22.70;44.80;;;;;;5010514;28;20228;-70
2023/08/08 05:16:02;;;;;;;1.30;1.20;;;22.70;45.00;;;;;;5002488;28;20236;-72
2023/08/08 05:18:28;;;;;;;1.20;1.10;;;22.70;45.00;;;;;;5004782;28;20262;-72
2023/08/08 05:20:53;;;;;;;1.23;1.13;;;22.70;45.00;;;;;;5013210;28;20239;-67
2023/08/08 05:23:19;;;;;;;1.13;1.07;;;22.70;45.10;;;;;;5011525;28;20227;-67
2023/08/08 05:25:45;;;;;;;1.10;1.00;;;22.70;45.20;;;;;;5006094;28;20234;-69
2023/08/08 05:28:11;;;;;;;1.07;1.00;;;22.70;45.30;;;;;;5005912;28;20444;-69
2023/08/08 05:30:36;;;;;;;1.30;1.20;;;22.70;45.30;;;;;;5008832;28;20452;-68
2023/08/08 05:33:02;;;;;;;1.30;1.20;;;22.70;45.30;;;;;;5009577;28;20565;-69
2023/08/08 05:35:27;;;;;;;1.10;1.10;;;22.70;45.40;;;;;;5012367;28;20238;-68
2023/08/08 05:37:53;;;;;;;1.33;1.23;;;22.70;45.40;;;;;;5014360;28;20692;-68
2023/08/08 05:40:19;;;;;;;2.30;1.20;;;22.70;45.50;;;;;;5008558;28;20239;-68
2023/08/08 05:42:44;;;;;;;1.30;1.20;;;22.70;46.30;;;;;;5010957;28;20226;-68
2023/08/08 05:45:10;;;;;;;1.27;1.17;;;22.70;45.50;;;;;;5011815;28;20650;-67
2023/08/08 05:47:35;;;;;;;1.10;1.00;;;22.70;45.60;;;;;;5011980;28;20334;-67
2023/08/08 05:50:01;;;;;;;1.20;1.00;;;22.70;45.60;;;;;;5010505;28;20230;-68
2023/08/08 05:52:26;;;;;;;1.63;1.03;;;22.70;45.60;;;;;;5015397;28;20237;-67
2023/08/08 05:54:52;;;;;;;1.30;1.20;;;22.70;45.60;;;;;;5009709;28;20234;-69
2023/08/08 05:57:17;;;;;;;15.33;4.60;;;22.70;45.70;;;;;;5009104;28;20230;-69
2023/08/08 05:59:44;;;;;;;2.20;2.00;;;22.70;45.70;;;;;;4998239;28;20716;-70
2023/08/08 06:02:10;;;;;;;2.40;1.57;;;22.70;45.70;;;;;;5001262;28;20325;-64
2023/08/08 06:04:36;;;;;;;3.90;1.60;;;22.70;45.70;;;;;;5010952;28;20492;-67
2023/08/08 06:07:01;;;;;;;2.43;1.70;;;22.70;45.70;;;;;;5002722;28;20686;-66
2023/08/08 06:09:28;;;;;;;3.70;1.30;;;22.70;45.70;;;;;;5014905;28;20577;-67
2023/08/08 06:11:53;;;;;;;2.23;1.90;;;22.70;45.70;;;;;;5010768;28;20227;-65
2023/08/08 06:14:19;;;;;;;4.10;1.87;;;22.70;45.80;;;;;;5003236;28;20471;-67
2023/08/08 06:16:46;;;;;;;1.90;1.67;;;22.70;45.70;;;;;;5002483;28;20354;-65
2023/08/08 06:19:13;;;;;;;1.73;1.60;;;22.70;45.70;;;;;;5000524;28;20226;-67
2023/08/08 06:21:39;;;;;;;2.17;1.70;;;22.70;45.70;;;;;;5004980;28;20461;-66
2023/08/08 06:24:04;;;;;;;1.57;1.47;;;22.70;45.70;;;;;;5006806;28;21061;-66
2023/08/08 06:26:30;;;;;;;1.80;1.70;;;22.70;45.70;;;;;;5003336;28;20233;-65
2023/08/08 06:28:55;;;;;;;1.77;1.67;;;22.70;45.70;;;;;;5007265;28;21505;-67
2023/08/08 06:31:22;;;;;;;2.13;1.70;;;22.70;45.70;;;;;;5002227;28;20280;-66
2023/08/08 06:33:47;;;;;;;2.27;1.60;;;22.70;45.70;;;;;;5008543;28;20226;-66
2023/08/08 06:36:13;;;;;;;1.83;1.40;;;22.70;45.70;;;;;;4997346;28;20472;-67
2023/08/08 06:38:39;;;;;;;2.43;1.60;;;22.70;45.70;;;;;;4997424;28;20481;-67
2023/08/08 06:41:04;;;;;;;1.93;1.70;;;22.70;45.70;;;;;;5019774;28;20219;-67
2023/08/08 06:43:30;;;;;;;4.90;1.70;;;22.70;45.70;;;;;;5002906;28;20393;-67
2023/08/08 06:45:56;;;;;;;1.50;1.40;;;22.70;45.70;;;;;;5000248;28;20238;-67
2023/08/08 06:48:22;;;;;;;2.97;1.70;;;22.70;45.70;;;;;;5010225;28;20238;-77
2023/08/08 06:50:49;;;;;;;1.83;1.40;;;22.70;45.70;;;;;;4997884;28;20223;-74
2023/08/08 06:53:15;;;;;;;1.83;1.67;;;22.70;45.60;;;;;;4990647;28;20677;-74
2023/08/08 06:55:41;;;;;;;1.90;1.70;;;22.70;45.60;;;;;;5001791;28;20549;-73
2023/08/08 06:58:06;;;;;;;1.90;1.60;;;22.70;45.50;;;;;;5008043;28;20468;-73
2023/08/08 07:00:32;;;;;;;1.87;1.70;;;22.70;45.30;;;;;;5006365;28;20288;-71
2023/08/08 07:02:57;;;;;;;1.90;1.60;;;22.70;45.10;;;;;;5024050;28;20234;-70
2023/08/08 07:05:23;;;;;;;1.50;1.40;;;22.70;45.20;;;;;;5002557;28;20235;-69
2023/08/08 07:07:50;;;;;;;2.00;1.60;;;22.70;45.20;;;;;;5009998;28;20234;-71
2023/08/08 07:10:16;;;;;;;1.40;1.30;;;22.70;45.30;;;;;;4999182;28;22207;-73
2023/08/08 07:12:41;;;;;;;1.70;1.60;;;22.70;45.30;;;;;;5002833;28;21002;-69
2023/08/08 07:15:09;;;;;;;2.50;2.40;;;22.70;45.40;;;;;;5004624;28;20228;-69
2023/08/08 07:17:35;;;;;;;1.40;1.30;;;22.60;45.30;;;;;;5011334;28;20227;-70
2023/08/08 07:20:00;;;;;;;1.83;1.63;;;22.70;45.40;;;;;;5007495;28;20533;-71
2023/08/08 07:22:26;;;;;;;1.70;1.60;;;22.60;45.40;;;;;;5013089;28;20230;-70
2023/08/08 07:24:52;;;;;;;1.60;1.50;;;22.60;45.40;;;;;;5007487;28;20226;-69
2023/08/08 07:27:17;;;;;;;1.60;1.50;;;22.60;45.40;;;;;;5010679;28;20566;-70
2023/08/08 07:29:43;;;;;;;1.83;1.53;;;22.60;45.40;;;;;;5011834;28;20219;-71
2023/08/08 07:32:09;;;;;;;2.30;1.57;;;22.60;45.40;;;;;;5012690;28;20237;-70
2023/08/08 07:34:34;;;;;;;5.30;1.73;;;22.60;45.40;;;;;;5007143;28;20235;-71
2023/08/08 07:37:00;;;;;;;1.60;1.50;;;22.60;45.40;;;;;;5009914;28;20239;-70
2023/08/08 07:39:26;;;;;;;1.70;1.60;;;22.60;45.40;;;;;;5014991;28;20301;-71
2023/08/08 07:41:52;;;;;;;2.13;1.70;;;22.60;45.50;;;;;;5007894;28;20250;-71
2023/08/08 07:44:17;;;;;;;2.00;1.90;;;22.60;45.40;;;;;;5004979;28;20222;-70
2023/08/08 07:46:43;;;;;;;1.63;1.53;;;22.60;45.50;;;;;;5003097;28;20475;-72
2023/08/08 07:49:09;;;;;;;1.60;1.50;;;22.60;45.50;;;;;;5007058;28;20286;-71
2023/08/08 07:51:35;;;;;;;1.70;1.60;;;22.60;45.50;;;;;;5007748;28;20326;-69
2023/08/08 07:54:01;;;;;;;1.40;1.30;;;22.60;45.50;;;;;;5005945;28;20342;-70
2023/08/08 07:56:26;;;;;;;1.67;1.57;;;22.60;45.50;;;;;;5011397;28;20987;-69
2023/08/08 07:58:52;;;;;;;1.60;1.50;;;22.60;45.50;;;;;;5014257;28;20223;-70
2023/08/08 08:01:18;;;;;;;1.40;1.30;;;22.60;45.50;;;;;;5004299;28;21407;-69
2023/08/08 08:03:44;;;;;;;1.60;1.50;;;22.60;45.50;;;;;;5013000;28;20468;-71
2023/08/08 08:06:10;;;;;;;1.60;1.50;;;22.60;45.50;;;;;;5002639;28;20239;-71
2023/08/08 08:08:36;;;;;;;1.57;1.47;;;22.60;45.50;;;;;;5002335;28;20254;-70
2023/08/08 08:11:02;;;;;;;2.27;1.60;;;22.60;45.60;;;;;;5008737;28;22339;-70
2023/08/08 08:13:28;;;;;;;1.50;1.33;;;22.60;45.60;;;;;;5011911;28;20581;-71
2023/08/08 08:15:53;;;;;;;1.53;1.43;;;22.60;45.50;;;;;;4999036;28;20459;-73
2023/08/08 08:18:20;;;;;;;1.80;1.70;;;22.60;45.60;;;;;;5000266;28;20305;-72
2023/08/08 08:20:46;;;;;;;1.57;1.47;;;22.60;45.60;;;;;;5011059;28;20230;-72
2023/08/08 08:23:11;;;;;;;1.70;1.60;;;22.60;45.60;;;;;;5007369;28;20784;-72
2023/08/08 08:25:37;;;;;;;1.67;1.57;;;22.60;45.60;;;;;;5005798;28;20965;-72
2023/08/08 08:28:03;;;;;;;1.70;1.60;;;22.60;45.60;;;;;;4998364;28;20269;-73
2023/08/08 08:30:28;;;;;;;1.60;1.50;;;22.60;45.60;;;;;;5000631;28;20231;-74
2023/08/08 08:32:54;;;;;;;1.70;1.60;;;22.60;45.70;;;;;;5008719;28;20229;-72
2023/08/08 08:35:20;;;;;;;2.47;1.53;;;22.60;45.70;;;;;;5008923;28;20226;-72
2023/08/08 08:37:46;;;;;;;1.60;1.50;;;22.60;45.70;;;;;;5011221;28;20231;-72
2023/08/08 08:40:11;;;;;;;1.50;1.40;;;22.60;45.70;;;;;;5009261;28;20473;-72
2023/08/08 08:42:38;;;;;;;1.73;1.63;;;22.60;45.70;;;;;;5011400;28;20255;-72
2023/08/08 08:45:05;;;;;;;1.40;1.30;;;22.60;45.70;;;;;;5007829;28;20558;-72
2023/08/08 08:47:32;;;;;;;1.90;1.70;;;22.60;45.80;;;;;;5009884;28;20471;-72
2023/08/08 08:49:58;;;;;;;1.63;1.53;;;22.60;45.80;;;;;;4998542;28;20543;-72
2023/08/08 08:52:24;;;;;;;1.73;1.63;;;22.60;45.80;;;;;;5011770;28;20796;-74
2023/08/08 08:54:53;;;;;;;1.47;1.37;;;22.60;45.80;;;;;;4995546;28;21274;-72
2023/08/08 08:57:19;;;;;;;1.90;1.80;;;22.60;45.80;;;;;;5001886;28;20246;-72
2023/08/08 08:59:45;;;;;;;1.70;1.60;;;22.60;45.80;;;;;;4996299;28;20509;-73
2023/08/08 09:02:11;;;;;;;1.50;1.40;;;22.60;45.80;;;;;;5007783;28;20563;-72
2023/08/08 09:04:37;;;;;;;1.70;1.60;;;22.60;45.80;;;;;;4996335;28;20230;-72
2023/08/08 09:07:05;;;;;;;1.93;1.83;;;22.60;45.90;;;;;;5006758;28;20476;-73
2023/08/08 09:09:32;;;;;;;1.93;1.83;;;22.60;45.80;;;;;;5010339;28;20452;-72
2023/08/08 09:11:57;;;;;;;1.60;1.50;;;22.60;45.90;;;;;;5010390;28;21061;-73
2023/08/08 09:14:26;;;;;;;1.63;1.53;;;22.60;45.80;;;;;;5008317;28;20453;-74
2023/08/08 09:16:53;;;;;;;2.10;2.00;;;22.60;45.90;;;;;;5000814;28;20231;-73
2023/08/08 09:19:19;;;;;;;1.70;1.60;;;22.60;45.90;;;;;;5001490;28;20507;-74
2023/08/08 09:21:45;;;;;;;1.47;1.37;;;22.60;45.90;;;;;;5000624;28;20521;-74
2023/08/08 09:24:11;;;;;;;1.70;1.60;;;22.60;45.90;;;;;;4992839;28;20556;-74
2023/08/08 09:26:36;;;;;;;1.80;1.70;;;22.60;45.80;;;;;;4999388;28;20991;-73
2023/08/08 09:29:03;;;;;;;3.53;1.70;;;22.60;45.80;;;;;;5000888;28;20730;-73
2023/08/08 09:31:30;;;;;;;1.70;1.60;;;22.60;46.70;;;;;;4997195;28;20233;-74
2023/08/08 09:34:00;;;;;;;1.60;1.50;;;22.60;45.80;;;;;;4999224;28;20548;-74
2023/08/08 09:36:26;;;;;;;1.80;1.70;;;22.60;45.90;;;;;;5002788;28;20847;-73
2023/08/08 09:38:53;;;;;;;2.00;1.77;;;22.50;45.80;;;;;;5011985;28;20460;-73
2023/08/08 09:41:22;;;;;;;1.83;1.73;;;22.50;45.80;;;;;;5003945;28;20235;-73
2023/08/08 09:43:48;;;;;;;1.80;1.70;;;22.60;45.90;;;;;;5007339;28;20475;-74
2023/08/08 09:46:15;;;;;;;1.53;1.43;;;22.50;45.80;;;;;;4999977;28;20459;-73
2023/08/08 09:48:42;;;;;;;4.57;1.93;;;22.50;45.80;;;;;;5010089;28;20576;-73
2023/08/08 09:51:08;;;;;;;1.70;1.60;;;22.50;45.80;;;;;;5005496;28;20496;-73
2023/08/08 09:53:35;;;;;;;1.80;1.70;;;22.50;45.80;;;;;;5005671;28;20489;-73
2023/08/08 09:56:03;;;;;;;2.20;1.80;;;22.50;45.80;;;;;;4996138;28;20485;-73
2023/08/08 09:58:30;;;;;;;1.73;1.63;;;22.50;45.80;;;;;;4996094;28;20487;-73
2023/08/08 10:00:56;;;;;;;1.60;1.50;;;22.50;45.90;;;;;;4999039;28;20536;-73
2023/08/08 10:03:22;;;;;;;3.23;1.67;;;22.50;45.90;;;;;;4998467;28;20445;-73
2023/08/08 10:05:48;;;;;;;1.70;1.60;;;22.60;46.00;;;;;;4995940;28;20288;-74
2023/08/08 10:08:18;;;;;;;1.90;1.80;;;22.60;46.00;;;;;;5005449;28;20459;-74
2023/08/08 10:10:45;;;;;;;1.73;1.50;;;22.50;45.80;;;;;;5007202;28;20473;-73
2023/08/08 10:13:22;;;;;;;1.77;1.67;;;22.60;46.00;;;;;;5008847;28;20558;-74
2023/08/08 10:15:49;;;;;;;1.70;1.60;;;22.50;45.90;;;;;;5004585;28;20521;-74
2023/08/08 10:18:15;;;;;;;1.80;1.60;;;22.50;45.90;;;;;;5007788;28;20464;-74
2023/08/08 10:20:47;;;;;;;2.50;1.60;;;22.50;45.90;;;;;;5012089;28;20472;-73
2023/08/08 10:23:17;;;;;;;1.80;1.70;;;22.50;45.90;;;;;;5004867;28;20312;-73
2023/08/08 10:25:48;;;;;;;2.00;1.90;;;22.50;45.90;;;;;;5005998;28;20483;-73
2023/08/08 10:28:16;;;;;;;4.50;1.97;;;22.50;45.90;;;;;;4999700;28;20476;-73
2023/08/08 10:30:56;;;;;;;1.90;1.80;;;22.50;45.90;;;;;;4995399;28;20487;-73
2023/08/08 10:33:23;;;;;;;1.70;1.60;;;22.50;45.90;;;;;;5009745;28;20444;-73
2023/08/08 10:36:08;;;;;;;2.27;1.50;;;22.50;45.90;;;;;;5003128;28;21012;-73
2023/08/08 10:38:46;;;;;;;1.80;1.70;;;22.50;45.90;;;;;;4991059;28;20495;-73
2023/08/08 10:41:17;;;;;;;1.77;1.67;;;22.50;45.90;;;;;;5000652;28;20479;-73
2023/08/08 10:43:52;;;;;;;2.50;1.60;;;22.50;46.00;;;;;;5012937;28;20605;-73
2023/08/08 10:46:32;;;;;;;1.77;1.67;;;22.50;45.90;;;;;;5022455;28;20452;-74
2023/08/08 10:49:02;;;;;;;1.70;1.60;;;22.50;45.90;;;;;;5011770;28;20470;-70
2023/08/08 10:51:46;;;;;;;1.63;1.53;;;22.50;46.00;;;;;;5014494;28;20461;-71
2023/08/08 10:54:27;;;;;;;1.90;1.80;;;22.50;45.90;;;;;;5006862;28;21171;-70
2023/08/08 10:56:57;;;;;;;2.03;1.93;;;22.50;45.90;;;;;;5004288;28;20460;-70
2023/08/08 10:59:29;;;;;;;2.67;1.50;;;22.50;45.90;;;;;;5001857;28;20459;-70
2023/08/08 11:01:56;;;;;;;1.60;1.50;;;22.50;46.00;;;;;;5012282;28;20521;-70
2023/08/08 11:04:24;;;;;;;3.33;1.80;;;22.50;46.00;;;;;;5005464;28;20464;-71
2023/08/08 11:06:50;;;;;;;6.07;1.70;;;22.50;46.00;;;;;;5012722;28;20462;-70
2023/08/08 11:09:17;;;;;;;2.00;1.57;;;22.50;46.00;;;;;;5013499;28;20957;-70
2023/08/08 11:11:44;;;;;;;2.00;1.90;;;22.50;46.00;;;;;;5011988;28;20694;-70
2023/08/08 11:14:11;;;;;;;1.80;1.70;;;22.50;46.00;;;;;;5011000;28;21075;-71
2023/08/08 11:16:37;;;;;;;1.93;1.60;;;22.50;46.00;;;;;;5000958;28;20476;-70
2023/08/08 11:19:02;;;;;;;1.87;1.77;;;22.50;46.00;;;;;;5005109;28;20551;-70
2023/08/08 11:21:28;;;;;;;2.53;1.57;;;22.50;46.00;;;;;;5009340;28;20456;-70
2023/08/08 11:23:53;;;;;;;1.97;1.87;;;22.50;46.00;;;;;;5012606;28;20223;-70
2023/08/08 11:26:19;;;;;;;2.23;2.10;;;22.50;45.90;;;;;;5008678;28;20589;-70
2023/08/08 11:28:54;;;;;;;1.97;1.70;;;22.50;46.00;;;;;;5012888;28;20215;-70
2023/08/08 11:31:24;;;;;;;1.70;1.60;;;22.50;46.00;;;;;;5006232;28;20635;-69
2023/08/08 11:33:50;;;;;;;2.00;1.80;;;22.50;46.00;;;;;;5009992;28;20513;-70
2023/08/08 11:36:15;;;;;;;1.70;1.60;;;22.50;45.90;;;;;;5010295;28;21244;-70
2023/08/08 11:38:43;;;;;;;1.63;1.53;;;22.50;46.00;;;;;;5009986;28;20222;-69
2023/08/08 11:41:10;;;;;;;1.70;1.60;;;22.50;46.00;;;;;;5003738;28;20234;-70
2023/08/08 11:43:40;;;;;;;2.07;1.67;;;22.50;45.90;;;;;;5011338;28;20506;-69
2023/08/08 11:46:15;;;;;;;2.57;2.10;;;22.50;46.00;;;;;;5012109;28;20461;-70
2023/08/08 11:48:41;;;;;;;2.00;1.90;;;22.50;46.00;;;;;;5014446;28;20456;-70
2023/08/08 11:51:08;;;;;;;1.70;1.60;;;22.50;46.00;;;;;;5008863;28;20474;-70
2023/08/08 11:53:35;;;;;;;2.07;1.93;;;22.50;46.00;;;;;;5006642;28;20484;-73
2023/08/08 11:56:03;;;;;;;2.40;2.30;;;22.50;46.00;;;;;;4996240;28;20519;-69
2023/08/08 11:58:30;;;;;;;2.00;1.90;;;22.50;46.00;;;;;;5011184;28;20452;-72
2023/08/08 12:00:56;;;;;;;2.00;1.90;;;22.50;45.90;;;;;;5010175;28;20875;-71
2023/08/08 12:03:24;;;;;;;1.77;1.67;;;22.50;46.00;;;;;;5003827;28;20580;-70
2023/08/08 12:05:50;;;;;;;1.90;1.80;;;22.50;46.00;;;;;;4987454;28;20529;-70
2023/08/08 12:08:20;;;;;;;2.50;2.17;;;22.50;45.90;;;;;;4995222;28;20947;-71
2023/08/08 12:10:56;;;;;;;2.40;2.30;;;22.50;45.90;;;;;;4998071;28;20532;-70
2023/08/08 12:13:22;;;;;;;2.10;2.00;;;22.50;45.90;;;;;;5001699;28;20486;-70
2023/08/08 12:15:48;;;;;;;1.87;1.77;;;22.50;45.90;;;;;;5009063;28;20567;-70
2023/08/08 12:18:17;;;;;;;1.70;1.60;;;22.50;46.00;;;;;;5007244;28;20456;-70
2023/08/08 12:20:44;;;;;;;2.10;2.00;;;22.50;46.00;;;;;;5007579;28;20706;-69
2023/08/08 12:23:09;;;;;;;2.20;2.00;;;22.50;46.00;;;;;;5003591;28;20452;-70
2023/08/08 12:25:35;;;;;;;1.80;1.70;;;22.50;46.00;;;;;;5000436;28;20492;-70
2023/08/08 12:28:02;;;;;;;1.83;1.70;;;22.50;46.00;;;;;;5013137;28;20344;-73
2023/08/08 12:30:27;;;;;;;2.33;2.23;;;22.50;46.00;;;;;;5003973;28;20241;-72
2023/08/08 12:32:53;;;;;;;2.30;2.20;;;22.50;46.00;;;;;;5004526;28;20444;-73
2023/08/08 12:35:20;;;;;;;2.20;2.10;;;22.50;46.00;;;;;;5005144;28;20241;-72
2023/08/08 12:37:46;;;;;;;2.00;1.90;;;22.50;46.00;;;;;;5009816;28;20745;-72
2023/08/08 12:40:12;;;;;;;1.90;1.80;;;22.50;46.00;;;;;;5000328;28;20536;-72
2023/08/08 12:42:38;;;;;;;2.23;2.10;;;22.50;46.00;;;;;;5011240;28;20467;-72
2023/08/08 12:45:05;;;;;;;2.00;1.90;;;22.50;46.00;;;;;;5007611;28;20821;-72